sensor_id;sensor_type;location;lat;lon;timestamp;P1;durP1;ratioP1;P2;durP2;ratioP2
76351;SDS011;65179;47.786;19.138;2022-12-18T00:01:36;28.10;;;11.10;;
76351;SDS011;65179;47.786;19.138;2022-12-18T00:04:03;24.00;;;10.15;;
76351;SDS011;65179;47.786;19.138;2022-12-18T00:06:30;28.15;;;11.20;;
76351;SDS011;65179;47.786;19.138;2022-12-18T00:08:57;29.17;;;10.65;;
76351;SDS011;65179;47.786;19.138;2022-12-18T00:11:26;29.02;;;11.40;;
76351;SDS011;65179;47.786;19.138;2022-12-18T00:13:55;29.20;;;10.70;;
76351;SDS011;65179;47.786;19.138;2022-12-18T00:16:22;29.75;;;10.52;;
76351;SDS011;65179;47.786;19.138;2022-12-18T00:18:49;28.17;;;10.38;;
76351;SDS011;65179;47.786;19.138;2022-12-18T00:21:16;21.30;;;7.57;;
76351;SDS011;65179;47.786;19.138;2022-12-18T00:23:44;29.87;;;11.18;;
76351;SDS011;65179;47.786;19.138;2022-12-18T00:26:12;31.60;;;11.97;;
76351;SDS011;65179;47.786;19.138;2022-12-18T00:28:40;31.75;;;11.70;;
76351;SDS011;65179;47.786;19.138;2022-12-18T00:31:06;30.27;;;11.12;;
76351;SDS011;65179;47.786;19.138;2022-12-18T00:33:34;28.30;;;11.33;;
76351;SDS011;65179;47.786;19.138;2022-12-18T00:36:03;28.15;;;10.25;;
76351;SDS011;65179;47.786;19.138;2022-12-18T00:38:33;28.02;;;10.10;;
76351;SDS011;65179;47.786;19.138;2022-12-18T00:40:58;29.92;;;11.63;;
76351;SDS011;65179;47.786;19.138;2022-12-18T00:43:24;32.43;;;12.23;;
76351;SDS011;65179;47.786;19.138;2022-12-18T00:45:50;30.00;;;11.00;;
76351;SDS011;65179;47.786;19.138;2022-12-18T00:48:16;27.43;;;11.13;;
76351;SDS011;65179;47.786;19.138;2022-12-18T00:50:41;31.83;;;10.50;;
76351;SDS011;65179;47.786;19.138;2022-12-18T00:53:07;35.00;;;12.17;;
76351;SDS011;65179;47.786;19.138;2022-12-18T00:55:32;32.30;;;11.90;;
76351;SDS011;65179;47.786;19.138;2022-12-18T00:57:58;33.37;;;12.33;;
76351;SDS011;65179;47.786;19.138;2022-12-18T01:00:23;30.48;;;11.82;;
76351;SDS011;65179;47.786;19.138;2022-12-18T01:02:48;32.43;;;12.80;;
76351;SDS011;65179;47.786;19.138;2022-12-18T01:05:14;31.23;;;13.03;;
76351;SDS011;65179;47.786;19.138;2022-12-18T01:07:40;33.00;;;12.23;;
76351;SDS011;65179;47.786;19.138;2022-12-18T01:10:06;31.80;;;12.60;;
76351;SDS011;65179;47.786;19.138;2022-12-18T01:12:33;33.60;;;11.98;;
76351;SDS011;65179;47.786;19.138;2022-12-18T01:14:58;32.92;;;12.35;;
76351;SDS011;65179;47.786;19.138;2022-12-18T01:17:24;35.57;;;12.63;;
76351;SDS011;65179;47.786;19.138;2022-12-18T01:19:49;30.73;;;10.90;;
76351;SDS011;65179;47.786;19.138;2022-12-18T01:22:15;34.00;;;11.67;;
76351;SDS011;65179;47.786;19.138;2022-12-18T01:24:40;30.95;;;11.52;;
76351;SDS011;65179;47.786;19.138;2022-12-18T01:27:06;30.02;;;11.48;;
76351;SDS011;65179;47.786;19.138;2022-12-18T01:29:31;32.77;;;11.57;;
76351;SDS011;65179;47.786;19.138;2022-12-18T01:31:57;31.97;;;11.23;;
76351;SDS011;65179;47.786;19.138;2022-12-18T01:34:23;32.42;;;12.27;;
76351;SDS011;65179;47.786;19.138;2022-12-18T01:36:48;35.00;;;12.05;;
76351;SDS011;65179;47.786;19.138;2022-12-18T01:39:17;32.57;;;12.60;;
76351;SDS011;65179;47.786;19.138;2022-12-18T01:41:43;35.90;;;12.70;;
76351;SDS011;65179;47.786;19.138;2022-12-18T01:49:51;33.50;;;13.60;;
76351;SDS011;65179;47.786;19.138;2022-12-18T01:52:17;32.33;;;12.47;;
76351;SDS011;65179;47.786;19.138;2022-12-18T01:54:45;36.80;;;11.95;;
76351;SDS011;65179;47.786;19.138;2022-12-18T01:57:11;29.70;;;11.48;;
76351;SDS011;65179;47.786;19.138;2022-12-18T01:59:37;37.83;;;13.20;;
76351;SDS011;65179;47.786;19.138;2022-12-18T02:02:06;28.98;;;11.12;;
76351;SDS011;65179;47.786;19.138;2022-12-18T02:04:32;33.47;;;12.45;;
76351;SDS011;65179;47.786;19.138;2022-12-18T02:07:03;40.00;;;13.23;;
76351;SDS011;65179;47.786;19.138;2022-12-18T02:09:44;32.42;;;12.48;;
76351;SDS011;65179;47.786;19.138;2022-12-18T02:15:02;31.70;;;12.15;;
76351;SDS011;65179;47.786;19.138;2022-12-18T02:18:18;34.37;;;11.93;;
76351;SDS011;65179;47.786;19.138;2022-12-18T02:20:32;35.85;;;12.77;;
76351;SDS011;65179;47.786;19.138;2022-12-18T02:23:06;32.42;;;11.73;;
76351;SDS011;65179;47.786;19.138;2022-12-18T02:26:07;35.33;;;12.68;;
76351;SDS011;65179;47.786;19.138;2022-12-18T02:28:40;34.63;;;12.18;;
76351;SDS011;65179;47.786;19.138;2022-12-18T02:31:11;37.57;;;12.90;;
76351;SDS011;65179;47.786;19.138;2022-12-18T02:33:40;29.02;;;10.95;;
76351;SDS011;65179;47.786;19.138;2022-12-18T02:36:09;29.40;;;11.45;;
76351;SDS011;65179;47.786;19.138;2022-12-18T02:38:37;28.45;;;10.75;;
76351;SDS011;65179;47.786;19.138;2022-12-18T02:41:04;31.45;;;11.68;;
76351;SDS011;65179;47.786;19.138;2022-12-18T02:43:31;29.57;;;10.43;;
76351;SDS011;65179;47.786;19.138;2022-12-18T02:45:57;31.95;;;11.50;;
76351;SDS011;65179;47.786;19.138;2022-12-18T02:48:27;35.65;;;11.20;;
76351;SDS011;65179;47.786;19.138;2022-12-18T02:51:08;33.27;;;10.57;;
76351;SDS011;65179;47.786;19.138;2022-12-18T02:53:51;30.85;;;11.07;;
76351;SDS011;65179;47.786;19.138;2022-12-18T02:56:30;34.50;;;11.85;;
76351;SDS011;65179;47.786;19.138;2022-12-18T02:59:12;32.60;;;11.32;;
76351;SDS011;65179;47.786;19.138;2022-12-18T03:04:26;33.97;;;11.90;;
76351;SDS011;65179;47.786;19.138;2022-12-18T03:06:57;28.25;;;11.23;;
76351;SDS011;65179;47.786;19.138;2022-12-18T03:09:28;33.10;;;11.35;;
76351;SDS011;65179;47.786;19.138;2022-12-18T03:11:59;25.95;;;9.95;;
76351;SDS011;65179;47.786;19.138;2022-12-18T03:14:47;32.47;;;11.38;;
76351;SDS011;65179;47.786;19.138;2022-12-18T03:17:36;25.27;;;10.93;;
76351;SDS011;65179;47.786;19.138;2022-12-18T03:20:08;29.58;;;10.65;;
76351;SDS011;65179;47.786;19.138;2022-12-18T03:22:37;33.63;;;12.02;;
76351;SDS011;65179;47.786;19.138;2022-12-18T03:25:06;30.10;;;11.07;;
76351;SDS011;65179;47.786;19.138;2022-12-18T03:27:35;32.55;;;12.23;;
76351;SDS011;65179;47.786;19.138;2022-12-18T03:30:05;34.63;;;12.07;;
76351;SDS011;65179;47.786;19.138;2022-12-18T03:32:36;30.10;;;11.38;;
76351;SDS011;65179;47.786;19.138;2022-12-18T03:35:07;35.55;;;12.73;;
76351;SDS011;65179;47.786;19.138;2022-12-18T03:37:37;31.87;;;12.57;;
76351;SDS011;65179;47.786;19.138;2022-12-18T03:40:03;33.87;;;12.87;;
76351;SDS011;65179;47.786;19.138;2022-12-18T03:48:29;36.03;;;12.50;;
76351;SDS011;65179;47.786;19.138;2022-12-18T03:56:05;32.80;;;12.10;;
76351;SDS011;65179;47.786;19.138;2022-12-18T03:58:32;33.03;;;12.55;;
76351;SDS011;65179;47.786;19.138;2022-12-18T04:01:01;35.95;;;12.40;;
76351;SDS011;65179;47.786;19.138;2022-12-18T04:03:30;35.42;;;11.93;;
76351;SDS011;65179;47.786;19.138;2022-12-18T04:05:57;36.83;;;12.80;;
76351;SDS011;65179;47.786;19.138;2022-12-18T04:08:24;28.67;;;10.47;;
76351;SDS011;65179;47.786;19.138;2022-12-18T04:10:51;38.80;;;12.25;;
76351;SDS011;65179;47.786;19.138;2022-12-18T04:13:24;35.85;;;12.32;;
76351;SDS011;65179;47.786;19.138;2022-12-18T04:15:52;30.60;;;11.60;;
76351;SDS011;65179;47.786;19.138;2022-12-18T04:18:18;35.28;;;13.02;;
76351;SDS011;65179;47.786;19.138;2022-12-18T04:20:44;33.17;;;11.57;;
76351;SDS011;65179;47.786;19.138;2022-12-18T04:23:09;31.35;;;10.93;;
76351;SDS011;65179;47.786;19.138;2022-12-18T04:25:35;32.63;;;11.77;;
76351;SDS011;65179;47.786;19.138;2022-12-18T04:28:00;29.60;;;11.70;;
76351;SDS011;65179;47.786;19.138;2022-12-18T04:30:25;36.03;;;13.27;;
76351;SDS011;65179;47.786;19.138;2022-12-18T04:32:51;37.35;;;13.05;;
76351;SDS011;65179;47.786;19.138;2022-12-18T04:35:16;32.50;;;11.27;;
76351;SDS011;65179;47.786;19.138;2022-12-18T04:37:42;30.30;;;11.57;;
76351;SDS011;65179;47.786;19.138;2022-12-18T04:40:07;38.63;;;13.07;;
76351;SDS011;65179;47.786;19.138;2022-12-18T04:42:33;35.70;;;12.68;;
76351;SDS011;65179;47.786;19.138;2022-12-18T04:44:59;33.43;;;11.50;;
76351;SDS011;65179;47.786;19.138;2022-12-18T04:47:24;36.53;;;12.67;;
76351;SDS011;65179;47.786;19.138;2022-12-18T04:49:49;36.67;;;12.55;;
76351;SDS011;65179;47.786;19.138;2022-12-18T04:52:15;41.03;;;13.13;;
76351;SDS011;65179;47.786;19.138;2022-12-18T04:54:40;37.17;;;12.97;;
76351;SDS011;65179;47.786;19.138;2022-12-18T04:57:06;41.50;;;13.80;;
76351;SDS011;65179;47.786;19.138;2022-12-18T04:59:31;34.95;;;12.73;;
76351;SDS011;65179;47.786;19.138;2022-12-18T05:01:57;35.80;;;12.80;;
76351;SDS011;65179;47.786;19.138;2022-12-18T05:04:22;33.47;;;13.57;;
76351;SDS011;65179;47.786;19.138;2022-12-18T05:06:48;35.57;;;13.90;;
76351;SDS011;65179;47.786;19.138;2022-12-18T05:09:13;36.37;;;13.83;;
76351;SDS011;65179;47.786;19.138;2022-12-18T05:11:38;35.30;;;13.50;;
76351;SDS011;65179;47.786;19.138;2022-12-18T05:14:04;36.57;;;12.83;;
76351;SDS011;65179;47.786;19.138;2022-12-18T05:16:29;36.47;;;13.33;;
76351;SDS011;65179;47.786;19.138;2022-12-18T05:18:55;37.10;;;12.57;;
76351;SDS011;65179;47.786;19.138;2022-12-18T05:21:20;42.97;;;15.00;;
76351;SDS011;65179;47.786;19.138;2022-12-18T05:23:46;37.53;;;13.97;;
76351;SDS011;65179;47.786;19.138;2022-12-18T05:26:14;39.90;;;13.30;;
76351;SDS011;65179;47.786;19.138;2022-12-18T05:28:42;39.17;;;13.25;;
76351;SDS011;65179;47.786;19.138;2022-12-18T05:31:07;40.10;;;14.30;;
76351;SDS011;65179;47.786;19.138;2022-12-18T05:33:33;35.78;;;14.02;;
76351;SDS011;65179;47.786;19.138;2022-12-18T05:36:00;41.07;;;14.20;;
76351;SDS011;65179;47.786;19.138;2022-12-18T05:38:30;34.50;;;13.70;;
76351;SDS011;65179;47.786;19.138;2022-12-18T05:40:57;36.92;;;13.70;;
76351;SDS011;65179;47.786;19.138;2022-12-18T05:43:23;36.03;;;13.65;;
76351;SDS011;65179;47.786;19.138;2022-12-18T05:45:50;41.93;;;13.67;;
76351;SDS011;65179;47.786;19.138;2022-12-18T05:48:17;37.72;;;13.27;;
76351;SDS011;65179;47.786;19.138;2022-12-18T05:50:43;38.22;;;13.30;;
76351;SDS011;65179;47.786;19.138;2022-12-18T05:53:10;38.63;;;13.47;;
76351;SDS011;65179;47.786;19.138;2022-12-18T05:55:37;37.00;;;13.77;;
76351;SDS011;65179;47.786;19.138;2022-12-18T05:58:04;36.25;;;13.50;;
76351;SDS011;65179;47.786;19.138;2022-12-18T06:00:32;40.42;;;13.55;;
76351;SDS011;65179;47.786;19.138;2022-12-18T06:02:59;38.40;;;13.87;;
76351;SDS011;65179;47.786;19.138;2022-12-18T06:05:25;44.60;;;14.20;;
76351;SDS011;65179;47.786;19.138;2022-12-18T06:07:51;39.60;;;12.93;;
76351;SDS011;65179;47.786;19.138;2022-12-18T06:10:17;35.87;;;12.70;;
76351;SDS011;65179;47.786;19.138;2022-12-18T06:12:42;29.07;;;12.60;;
76351;SDS011;65179;47.786;19.138;2022-12-18T06:15:08;40.33;;;13.35;;
76351;SDS011;65179;47.786;19.138;2022-12-18T06:17:35;34.83;;;13.13;;
76351;SDS011;65179;47.786;19.138;2022-12-18T06:20:01;35.88;;;13.48;;
76351;SDS011;65179;47.786;19.138;2022-12-18T06:22:27;41.13;;;12.85;;
76351;SDS011;65179;47.786;19.138;2022-12-18T06:24:52;41.17;;;15.47;;
76351;SDS011;65179;47.786;19.138;2022-12-18T06:27:18;47.65;;;15.90;;
76351;SDS011;65179;47.786;19.138;2022-12-18T06:29:44;38.33;;;14.23;;
76351;SDS011;65179;47.786;19.138;2022-12-18T06:32:10;37.88;;;14.00;;
76351;SDS011;65179;47.786;19.138;2022-12-18T06:34:38;40.77;;;14.77;;
76351;SDS011;65179;47.786;19.138;2022-12-18T06:37:04;42.65;;;15.02;;
76351;SDS011;65179;47.786;19.138;2022-12-18T06:39:29;43.53;;;16.10;;
76351;SDS011;65179;47.786;19.138;2022-12-18T06:41:55;39.83;;;13.73;;
76351;SDS011;65179;47.786;19.138;2022-12-18T06:44:20;42.43;;;15.17;;
76351;SDS011;65179;47.786;19.138;2022-12-18T06:46:46;50.38;;;16.85;;
76351;SDS011;65179;47.786;19.138;2022-12-18T06:49:11;44.23;;;16.07;;
76351;SDS011;65179;47.786;19.138;2022-12-18T06:51:37;35.00;;;14.10;;
76351;SDS011;65179;47.786;19.138;2022-12-18T06:54:02;41.80;;;14.10;;
76351;SDS011;65179;47.786;19.138;2022-12-18T06:56:28;44.55;;;15.15;;
76351;SDS011;65179;47.786;19.138;2022-12-18T06:58:55;38.17;;;14.27;;
76351;SDS011;65179;47.786;19.138;2022-12-18T07:01:20;46.43;;;16.23;;
76351;SDS011;65179;47.786;19.138;2022-12-18T07:03:46;45.22;;;15.95;;
76351;SDS011;65179;47.786;19.138;2022-12-18T07:06:13;43.97;;;15.53;;
76351;SDS011;65179;47.786;19.138;2022-12-18T07:08:46;44.72;;;15.80;;
76351;SDS011;65179;47.786;19.138;2022-12-18T07:11:12;43.00;;;15.50;;
76351;SDS011;65179;47.786;19.138;2022-12-18T07:13:38;40.67;;;14.13;;
76351;SDS011;65179;47.786;19.138;2022-12-18T07:16:07;35.13;;;14.43;;
76351;SDS011;65179;47.786;19.138;2022-12-18T07:18:34;41.88;;;15.48;;
76351;SDS011;65179;47.786;19.138;2022-12-18T07:21:04;43.17;;;15.30;;
76351;SDS011;65179;47.786;19.138;2022-12-18T07:23:31;41.30;;;14.70;;
76351;SDS011;65179;47.786;19.138;2022-12-18T07:26:00;40.25;;;15.30;;
76351;SDS011;65179;47.786;19.138;2022-12-18T07:28:30;43.87;;;16.23;;
76351;SDS011;65179;47.786;19.138;2022-12-18T07:30:56;50.33;;;15.65;;
76351;SDS011;65179;47.786;19.138;2022-12-18T07:33:22;40.20;;;15.60;;
76351;SDS011;65179;47.786;19.138;2022-12-18T07:35:47;41.93;;;14.37;;
76351;SDS011;65179;47.786;19.138;2022-12-18T07:38:12;40.33;;;14.03;;
76351;SDS011;65179;47.786;19.138;2022-12-18T07:40:38;44.63;;;14.98;;
76351;SDS011;65179;47.786;19.138;2022-12-18T07:43:03;45.23;;;15.80;;
76351;SDS011;65179;47.786;19.138;2022-12-18T07:45:30;46.17;;;16.33;;
76351;SDS011;65179;47.786;19.138;2022-12-18T07:47:55;49.63;;;17.02;;
76351;SDS011;65179;47.786;19.138;2022-12-18T07:50:21;50.10;;;18.27;;
76351;SDS011;65179;47.786;19.138;2022-12-18T07:52:46;51.08;;;17.75;;
76351;SDS011;65179;47.786;19.138;2022-12-18T07:55:12;43.65;;;16.70;;
76351;SDS011;65179;47.786;19.138;2022-12-18T07:57:37;42.07;;;17.00;;
76351;SDS011;65179;47.786;19.138;2022-12-18T08:00:03;46.93;;;16.33;;
76351;SDS011;65179;47.786;19.138;2022-12-18T08:02:30;39.30;;;15.73;;
76351;SDS011;65179;47.786;19.138;2022-12-18T08:04:56;47.03;;;17.10;;
76351;SDS011;65179;47.786;19.138;2022-12-18T08:07:21;42.60;;;14.93;;
76351;SDS011;65179;47.786;19.138;2022-12-18T08:09:47;46.10;;;16.73;;
76351;SDS011;65179;47.786;19.138;2022-12-18T08:12:12;49.70;;;17.43;;
76351;SDS011;65179;47.786;19.138;2022-12-18T08:14:38;44.58;;;16.90;;
76351;SDS011;65179;47.786;19.138;2022-12-18T08:17:03;39.73;;;14.97;;
76351;SDS011;65179;47.786;19.138;2022-12-18T08:19:29;45.20;;;16.77;;
76351;SDS011;65179;47.786;19.138;2022-12-18T08:21:54;48.35;;;16.62;;
76351;SDS011;65179;47.786;19.138;2022-12-18T08:24:20;43.50;;;15.95;;
76351;SDS011;65179;47.786;19.138;2022-12-18T08:26:45;41.93;;;15.20;;
76351;SDS011;65179;47.786;19.138;2022-12-18T08:29:11;40.22;;;13.93;;
76351;SDS011;65179;47.786;19.138;2022-12-18T08:31:37;42.63;;;16.03;;
76351;SDS011;65179;47.786;19.138;2022-12-18T08:34:02;47.40;;;17.10;;
76351;SDS011;65179;47.786;19.138;2022-12-18T08:36:28;43.53;;;15.40;;
76351;SDS011;65179;47.786;19.138;2022-12-18T08:38:53;42.78;;;17.33;;
76351;SDS011;65179;47.786;19.138;2022-12-18T08:41:19;47.77;;;17.83;;
76351;SDS011;65179;47.786;19.138;2022-12-18T08:43:45;40.40;;;15.95;;
76351;SDS011;65179;47.786;19.138;2022-12-18T08:46:34;47.67;;;17.27;;
76351;SDS011;65179;47.786;19.138;2022-12-18T08:49:01;47.95;;;18.23;;
76351;SDS011;65179;47.786;19.138;2022-12-18T08:51:27;43.17;;;16.23;;
76351;SDS011;65179;47.786;19.138;2022-12-18T08:53:52;50.08;;;16.90;;
76351;SDS011;65179;47.786;19.138;2022-12-18T08:56:18;48.63;;;17.27;;
76351;SDS011;65179;47.786;19.138;2022-12-18T08:58:43;46.83;;;18.87;;
76351;SDS011;65179;47.786;19.138;2022-12-18T09:01:09;41.33;;;17.05;;
76351;SDS011;65179;47.786;19.138;2022-12-18T09:03:36;38.80;;;15.80;;
76351;SDS011;65179;47.786;19.138;2022-12-18T09:06:02;38.90;;;15.13;;
76351;SDS011;65179;47.786;19.138;2022-12-18T09:08:28;48.10;;;17.58;;
76351;SDS011;65179;47.786;19.138;2022-12-18T09:10:54;43.13;;;17.17;;
76351;SDS011;65179;47.786;19.138;2022-12-18T09:13:20;44.95;;;17.73;;
76351;SDS011;65179;47.786;19.138;2022-12-18T09:15:50;41.37;;;17.35;;
76351;SDS011;65179;47.786;19.138;2022-12-18T09:18:17;37.70;;;15.38;;
76351;SDS011;65179;47.786;19.138;2022-12-18T09:20:44;41.43;;;16.33;;
76351;SDS011;65179;47.786;19.138;2022-12-18T09:23:10;44.00;;;15.68;;
76351;SDS011;65179;47.786;19.138;2022-12-18T09:25:36;43.22;;;16.40;;
76351;SDS011;65179;47.786;19.138;2022-12-18T09:28:03;41.53;;;16.63;;
76351;SDS011;65179;47.786;19.138;2022-12-18T09:30:31;37.70;;;16.65;;
76351;SDS011;65179;47.786;19.138;2022-12-18T09:32:58;40.65;;;17.12;;
76351;SDS011;65179;47.786;19.138;2022-12-18T09:35:24;41.33;;;16.60;;
76351;SDS011;65179;47.786;19.138;2022-12-18T09:37:49;40.83;;;17.13;;
76351;SDS011;65179;47.786;19.138;2022-12-18T09:40:19;34.53;;;15.90;;
76351;SDS011;65179;47.786;19.138;2022-12-18T09:43:01;36.80;;;16.73;;
76351;SDS011;65179;47.786;19.138;2022-12-18T09:45:38;38.43;;;15.17;;
76351;SDS011;65179;47.786;19.138;2022-12-18T09:48:14;37.70;;;16.50;;
76351;SDS011;65179;47.786;19.138;2022-12-18T09:50:48;39.90;;;17.45;;
76351;SDS011;65179;47.786;19.138;2022-12-18T09:53:17;37.85;;;15.70;;
76351;SDS011;65179;47.786;19.138;2022-12-18T09:55:47;36.08;;;15.63;;
76351;SDS011;65179;47.786;19.138;2022-12-18T09:58:17;39.50;;;15.70;;
76351;SDS011;65179;47.786;19.138;2022-12-18T10:00:53;41.65;;;16.20;;
76351;SDS011;65179;47.786;19.138;2022-12-18T10:03:19;40.80;;;16.20;;
76351;SDS011;65179;47.786;19.138;2022-12-18T10:08:13;43.63;;;16.90;;
76351;SDS011;65179;47.786;19.138;2022-12-18T10:10:48;40.30;;;15.32;;
76351;SDS011;65179;47.786;19.138;2022-12-18T10:13:26;41.33;;;17.17;;
76351;SDS011;65179;47.786;19.138;2022-12-18T10:18:44;37.05;;;16.80;;
76351;SDS011;65179;47.786;19.138;2022-12-18T10:22:00;42.08;;;19.12;;
76351;SDS011;65179;47.786;19.138;2022-12-18T10:26:43;42.20;;;17.33;;
76351;SDS011;65179;47.786;19.138;2022-12-18T10:29:10;38.53;;;16.85;;
76351;SDS011;65179;47.786;19.138;2022-12-18T10:31:38;41.72;;;18.17;;
76351;SDS011;65179;47.786;19.138;2022-12-18T10:34:04;47.07;;;18.37;;
76351;SDS011;65179;47.786;19.138;2022-12-18T10:36:34;42.55;;;18.92;;
76351;SDS011;65179;47.786;19.138;2022-12-18T10:41:47;41.60;;;16.90;;
76351;SDS011;65179;47.786;19.138;2022-12-18T10:44:17;35.60;;;15.83;;
76351;SDS011;65179;47.786;19.138;2022-12-18T10:46:50;40.78;;;16.62;;
76351;SDS011;65179;47.786;19.138;2022-12-18T10:49:25;35.90;;;17.12;;
76351;SDS011;65179;47.786;19.138;2022-12-18T10:59:55;38.25;;;17.30;;
76351;SDS011;65179;47.786;19.138;2022-12-18T11:02:33;39.60;;;16.00;;
76351;SDS011;65179;47.786;19.138;2022-12-18T11:05:00;39.17;;;16.95;;
76351;SDS011;65179;47.786;19.138;2022-12-18T11:07:31;41.27;;;17.17;;
76351;SDS011;65179;47.786;19.138;2022-12-18T11:10:17;37.85;;;15.75;;
76351;SDS011;65179;47.786;19.138;2022-12-18T11:12:44;38.95;;;16.92;;
76351;SDS011;65179;47.786;19.138;2022-12-18T11:15:29;38.30;;;15.82;;
76351;SDS011;65179;47.786;19.138;2022-12-18T11:17:55;37.25;;;15.65;;
76351;SDS011;65179;47.786;19.138;2022-12-18T11:20:31;36.83;;;16.23;;
76351;SDS011;65179;47.786;19.138;2022-12-18T11:23:00;36.65;;;16.33;;
76351;SDS011;65179;47.786;19.138;2022-12-18T11:25:29;35.00;;;15.27;;
76351;SDS011;65179;47.786;19.138;2022-12-18T11:28:00;35.88;;;15.85;;
76351;SDS011;65179;47.786;19.138;2022-12-18T11:30:36;33.50;;;14.27;;
76351;SDS011;65179;47.786;19.138;2022-12-18T11:33:06;35.67;;;15.60;;
76351;SDS011;65179;47.786;19.138;2022-12-18T11:38:28;36.28;;;15.93;;
76351;SDS011;65179;47.786;19.138;2022-12-18T11:43:45;35.30;;;16.12;;
76351;SDS011;65179;47.786;19.138;2022-12-18T11:46:17;36.05;;;15.52;;
76351;SDS011;65179;47.786;19.138;2022-12-18T11:49:01;34.58;;;15.52;;
76351;SDS011;65179;47.786;19.138;2022-12-18T11:51:56;33.95;;;15.32;;
76351;SDS011;65179;47.786;19.138;2022-12-18T11:54:29;35.60;;;17.37;;
76351;SDS011;65179;47.786;19.138;2022-12-18T12:13:14;32.00;;;14.18;;
76351;SDS011;65179;47.786;19.138;2022-12-18T12:32:05;33.17;;;14.47;;
76351;SDS011;65179;47.786;19.138;2022-12-18T12:34:48;32.72;;;14.95;;
76351;SDS011;65179;47.786;19.138;2022-12-18T12:40:18;33.72;;;14.80;;
76351;SDS011;65179;47.786;19.138;2022-12-18T12:42:46;35.85;;;14.70;;
76351;SDS011;65179;47.786;19.138;2022-12-18T12:51:09;32.30;;;13.82;;
76351;SDS011;65179;47.786;19.138;2022-12-18T12:53:42;32.00;;;14.00;;
76351;SDS011;65179;47.786;19.138;2022-12-18T12:56:09;36.13;;;13.55;;
76351;SDS011;65179;47.786;19.138;2022-12-18T13:04:00;35.20;;;13.20;;
76351;SDS011;65179;47.786;19.138;2022-12-18T13:09:22;32.13;;;13.55;;
76351;SDS011;65179;47.786;19.138;2022-12-18T13:11:47;38.15;;;15.18;;
76351;SDS011;65179;47.786;19.138;2022-12-18T13:14:33;30.05;;;12.70;;
76351;SDS011;65179;47.786;19.138;2022-12-18T13:17:13;29.35;;;12.88;;
76351;SDS011;65179;47.786;19.138;2022-12-18T13:19:42;34.72;;;13.32;;
76351;SDS011;65179;47.786;19.138;2022-12-18T13:22:28;34.90;;;14.10;;
76351;SDS011;65179;47.786;19.138;2022-12-18T13:24:58;36.10;;;13.48;;
76351;SDS011;65179;47.786;19.138;2022-12-18T13:35:40;32.10;;;12.70;;
76351;SDS011;65179;47.786;19.138;2022-12-18T13:48:48;37.42;;;15.27;;
76351;SDS011;65179;47.786;19.138;2022-12-18T13:51:20;46.22;;;17.12;;
76351;SDS011;65179;47.786;19.138;2022-12-18T13:53:51;35.40;;;14.32;;
76351;SDS011;65179;47.786;19.138;2022-12-18T13:56:23;37.80;;;14.95;;
76351;SDS011;65179;47.786;19.138;2022-12-18T13:59:04;42.50;;;16.00;;
76351;SDS011;65179;47.786;19.138;2022-12-18T14:01:34;42.15;;;17.40;;
76351;SDS011;65179;47.786;19.138;2022-12-18T14:07:06;39.63;;;16.98;;
76351;SDS011;65179;47.786;19.138;2022-12-18T14:09:36;38.47;;;16.80;;
76351;SDS011;65179;47.786;19.138;2022-12-18T14:12:05;37.50;;;16.50;;
76351;SDS011;65179;47.786;19.138;2022-12-18T14:14:50;36.90;;;14.52;;
76351;SDS011;65179;47.786;19.138;2022-12-18T14:17:18;33.85;;;14.82;;
76351;SDS011;65179;47.786;19.138;2022-12-18T14:19:47;37.85;;;15.00;;
76351;SDS011;65179;47.786;19.138;2022-12-18T14:22:21;35.22;;;13.95;;
76351;SDS011;65179;47.786;19.138;2022-12-18T14:25:05;37.00;;;13.75;;
76351;SDS011;65179;47.786;19.138;2022-12-18T14:27:37;39.65;;;16.05;;
76351;SDS011;65179;47.786;19.138;2022-12-18T14:30:22;48.33;;;17.93;;
76351;SDS011;65179;47.786;19.138;2022-12-18T14:33:03;40.95;;;16.33;;
76351;SDS011;65179;47.786;19.138;2022-12-18T14:35:41;39.92;;;15.45;;
76351;SDS011;65179;47.786;19.138;2022-12-18T14:40:47;39.40;;;16.15;;
76351;SDS011;65179;47.786;19.138;2022-12-18T14:43:13;49.60;;;19.83;;
76351;SDS011;65179;47.786;19.138;2022-12-18T14:45:42;36.00;;;14.20;;
76351;SDS011;65179;47.786;19.138;2022-12-18T14:48:16;50.20;;;20.20;;
76351;SDS011;65179;47.786;19.138;2022-12-18T14:51:16;43.70;;;18.87;;
76351;SDS011;65179;47.786;19.138;2022-12-18T14:53:44;50.65;;;19.40;;
76351;SDS011;65179;47.786;19.138;2022-12-18T14:58:48;44.15;;;17.77;;
76351;SDS011;65179;47.786;19.138;2022-12-18T15:04:00;40.60;;;16.07;;
76351;SDS011;65179;47.786;19.138;2022-12-18T15:06:29;45.83;;;20.73;;
76351;SDS011;65179;47.786;19.138;2022-12-18T15:09:00;51.67;;;22.08;;
76351;SDS011;65179;47.786;19.138;2022-12-18T15:11:49;49.65;;;20.98;;
76351;SDS011;65179;47.786;19.138;2022-12-18T15:14:30;49.28;;;21.85;;
76351;SDS011;65179;47.786;19.138;2022-12-18T15:16:57;63.30;;;27.20;;
76351;SDS011;65179;47.786;19.138;2022-12-18T15:19:32;63.78;;;27.20;;
76351;SDS011;65179;47.786;19.138;2022-12-18T15:21:58;65.90;;;28.83;;
76351;SDS011;65179;47.786;19.138;2022-12-18T15:24:26;70.80;;;31.23;;
76351;SDS011;65179;47.786;19.138;2022-12-18T15:26:56;73.65;;;33.45;;
76351;SDS011;65179;47.786;19.138;2022-12-18T15:29:22;80.93;;;35.53;;
76351;SDS011;65179;47.786;19.138;2022-12-18T15:34:44;104.05;;;47.53;;
76351;SDS011;65179;47.786;19.138;2022-12-18T15:37:10;100.15;;;45.92;;
76351;SDS011;65179;47.786;19.138;2022-12-18T15:39:35;101.60;;;44.15;;
76351;SDS011;65179;47.786;19.138;2022-12-18T15:42:01;93.73;;;40.93;;
76351;SDS011;65179;47.786;19.138;2022-12-18T15:44:45;75.18;;;33.78;;
76351;SDS011;65179;47.786;19.138;2022-12-18T15:47:11;74.53;;;30.67;;
76351;SDS011;65179;47.786;19.138;2022-12-18T15:49:38;62.38;;;28.85;;
76351;SDS011;65179;47.786;19.138;2022-12-18T15:52:04;74.03;;;34.53;;
76351;SDS011;65179;47.786;19.138;2022-12-18T15:54:30;81.73;;;42.00;;
76351;SDS011;65179;47.786;19.138;2022-12-18T15:57:14;77.28;;;38.08;;
76351;SDS011;65179;47.786;19.138;2022-12-18T15:59:49;73.97;;;33.13;;
76351;SDS011;65179;47.786;19.138;2022-12-18T16:02:21;68.75;;;28.92;;
76351;SDS011;65179;47.786;19.138;2022-12-18T16:04:47;62.50;;;28.38;;
76351;SDS011;65179;47.786;19.138;2022-12-18T16:07:14;56.57;;;25.80;;
76351;SDS011;65179;47.786;19.138;2022-12-18T16:09:40;67.50;;;28.80;;
76351;SDS011;65179;47.786;19.138;2022-12-18T16:12:11;77.60;;;33.40;;
76351;SDS011;65179;47.786;19.138;2022-12-18T16:14:44;96.97;;;41.45;;
76351;SDS011;65179;47.786;19.138;2022-12-18T16:17:10;104.38;;;43.85;;
76351;SDS011;65179;47.786;19.138;2022-12-18T16:19:37;100.12;;;43.72;;
76351;SDS011;65179;47.786;19.138;2022-12-18T16:22:02;94.20;;;42.13;;
76351;SDS011;65179;47.786;19.138;2022-12-18T16:24:29;99.77;;;42.53;;
76351;SDS011;65179;47.786;19.138;2022-12-18T16:26:57;100.82;;;43.55;;
76351;SDS011;65179;47.786;19.138;2022-12-18T16:29:24;102.57;;;42.45;;